createdAt,value
2023-03-27T00:01:22.357Z,1.73
2023-03-27T00:03:50.391Z,1.75
2023-03-27T00:06:19.484Z,1.50
2023-03-27T00:08:51.213Z,1.30
2023-03-27T00:11:20.088Z,1.70
2023-03-27T00:13:50.823Z,1.02
2023-03-27T00:16:19.681Z,0.80
2023-03-27T00:18:46.723Z,1.00
2023-03-27T00:21:13.703Z,0.73
2023-03-27T00:23:40.718Z,0.70
2023-03-27T00:26:07.542Z,0.68
2023-03-27T00:28:35.476Z,0.80
2023-03-27T00:31:02.799Z,0.55
2023-03-27T00:33:29.528Z,0.57
2023-03-27T00:35:56.670Z,0.60
2023-03-27T00:38:24.511Z,0.50
2023-03-27T00:40:54.457Z,0.40
2023-03-27T00:43:26.246Z,0.50
2023-03-27T00:45:58.835Z,0.45
2023-03-27T00:48:26.181Z,0.50
2023-03-27T00:50:53.944Z,0.45
2023-03-27T00:53:24.981Z,0.60
2023-03-27T00:55:54.837Z,0.43
2023-03-27T00:58:28.644Z,0.55
2023-03-27T01:00:57.297Z,0.60
2023-03-27T01:03:31.115Z,0.50
2023-03-27T01:06:01.073Z,0.35
2023-03-27T01:08:31.944Z,0.50
2023-03-27T01:11:01.832Z,0.60
2023-03-27T01:13:56.599Z,0.45
2023-03-27T01:16:51.001Z,0.52
2023-03-27T01:20:05.388Z,0.65
2023-03-27T01:22:59.864Z,0.45
2023-03-27T01:25:51.619Z,0.60
2023-03-27T01:28:30.160Z,0.70
2023-03-27T01:31:10.151Z,0.70
2023-03-27T01:33:56.181Z,0.50
2023-03-27T01:36:58.273Z,0.55
2023-03-27T01:39:27.561Z,0.70
2023-03-27T01:42:13.899Z,1.00
2023-03-27T01:45:02.796Z,0.80
2023-03-27T01:47:48.008Z,0.70
2023-03-27T01:50:29.056Z,0.60
2023-03-27T01:53:02.161Z,0.60
2023-03-27T01:55:34.566Z,0.30
2023-03-27T01:58:08.502Z,0.70
2023-03-27T02:00:51.920Z,0.50
2023-03-27T02:03:22.718Z,0.50
2023-03-27T02:05:56.673Z,0.30
2023-03-27T02:08:37.606Z,0.22
2023-03-27T02:11:13.190Z,0.30
2023-03-27T02:13:46.020Z,0.20
2023-03-27T02:16:18.216Z,0.40
2023-03-27T02:18:54.440Z,0.60
2023-03-27T02:21:23.614Z,0.20
2023-03-27T02:23:50.659Z,0.50
2023-03-27T02:26:17.932Z,0.20
2023-03-27T02:29:33.860Z,0.40
2023-03-27T02:32:19.705Z,0.30
2023-03-27T02:34:57.165Z,0.50
2023-03-27T02:37:46.374Z,0.30
2023-03-27T02:40:33.525Z,0.20
2023-03-27T02:43:37.614Z,0.30
2023-03-27T02:46:20.652Z,0.10
2023-03-27T02:48:55.036Z,0.30
2023-03-27T02:51:27.150Z,0.45
2023-03-27T02:53:55.856Z,0.20
2023-03-27T02:56:26.132Z,0.20
2023-03-27T02:59:20.086Z,0.20
2023-03-27T03:01:47.276Z,0.30
2023-03-27T03:04:31.445Z,0.28
2023-03-27T03:06:59.165Z,0.30
2023-03-27T03:09:30.115Z,0.40
2023-03-27T03:11:58.170Z,0.22
2023-03-27T03:14:31.095Z,0.17
2023-03-27T03:16:57.975Z,0.30
2023-03-27T03:19:24.859Z,0.30
2023-03-27T03:21:51.985Z,0.20
2023-03-27T03:24:19.123Z,0.25
2023-03-27T03:26:49.913Z,0.30
2023-03-27T03:29:19.211Z,0.30
2023-03-27T03:32:00.843Z,0.20
2023-03-27T03:34:27.973Z,0.20
2023-03-27T03:36:55.268Z,0.20
2023-03-27T03:39:28.620Z,0.32
2023-03-27T03:41:55.423Z,0.30
2023-03-27T03:44:22.095Z,0.20
2023-03-27T03:46:49.254Z,0.20
2023-03-27T03:49:20.669Z,0.30
2023-03-27T03:51:47.974Z,0.28
2023-03-27T03:54:32.916Z,0.10
2023-03-27T03:57:00.004Z,0.20
2023-03-27T03:59:26.977Z,0.25
2023-03-27T04:02:18.263Z,0.23
2023-03-27T04:04:46.567Z,0.20
2023-03-27T04:07:13.925Z,0.43
2023-03-27T04:09:45.487Z,0.55
2023-03-27T04:12:23.698Z,0.20
2023-03-27T04:14:57.983Z,0.32
2023-03-27T04:17:44.170Z,0.30
2023-03-27T04:20:15.194Z,0.35
2023-03-27T04:22:46.453Z,0.13
2023-03-27T04:25:17.281Z,0.20
2023-03-27T04:27:45.024Z,0.10
2023-03-27T04:30:23.101Z,0.20
2023-03-27T04:33:25.741Z,0.25
2023-03-27T04:36:16.098Z,0.20
2023-03-27T04:38:54.256Z,0.40
2023-03-27T04:41:21.409Z,0.20
2023-03-27T04:43:48.236Z,0.45
2023-03-27T04:46:14.953Z,0.30
2023-03-27T04:48:43.248Z,0.20
2023-03-27T04:51:26.730Z,0.25
2023-03-27T04:53:56.485Z,0.20
2023-03-27T04:56:24.948Z,0.22
2023-03-27T04:58:54.424Z,0.30
2023-03-27T05:01:21.465Z,0.20
2023-03-27T05:04:06.939Z,0.30
2023-03-27T05:06:44.590Z,0.25
2023-03-27T05:09:15.557Z,0.30
2023-03-27T05:11:44.815Z,0.30
2023-03-27T05:14:11.422Z,0.20
2023-03-27T05:16:41.230Z,0.40
2023-03-27T05:19:11.276Z,0.20
2023-03-27T05:21:43.376Z,0.40
2023-03-27T05:24:11.320Z,0.20
2023-03-27T05:26:39.140Z,0.47
2023-03-27T05:29:06.115Z,0.40
2023-03-27T05:31:37.154Z,0.45
2023-03-27T05:34:24.149Z,0.45
2023-03-27T05:36:55.081Z,0.77
2023-03-27T05:39:22.263Z,0.30
2023-03-27T05:41:49.296Z,0.63
2023-03-27T05:44:22.224Z,0.40
2023-03-27T05:46:49.465Z,0.40
2023-03-27T05:49:22.802Z,0.47
2023-03-27T05:51:55.161Z,0.40
2023-03-27T05:54:22.051Z,0.30
2023-03-27T05:56:54.789Z,0.40
2023-03-27T05:59:22.045Z,0.50
2023-03-27T06:01:51.954Z,0.40
2023-03-27T06:04:24.371Z,0.38
2023-03-27T06:07:03.165Z,0.40
2023-03-27T06:09:31.813Z,0.30
2023-03-27T06:12:18.824Z,0.55
2023-03-27T06:14:46.767Z,0.40
2023-03-27T06:17:36.413Z,0.70
2023-03-27T06:20:12.466Z,0.30
2023-03-27T06:22:55.682Z,0.40
2023-03-27T06:25:32.330Z,0.50
2023-03-27T06:27:59.605Z,0.60
2023-03-27T06:30:27.234Z,0.40
2023-03-27T06:33:20.800Z,0.50
2023-03-27T06:35:53.074Z,0.40
2023-03-27T06:38:32.009Z,0.70
2023-03-27T06:41:00.522Z,0.65
2023-03-27T06:43:52.868Z,0.50
2023-03-27T06:46:44.724Z,0.40
2023-03-27T06:49:38.486Z,0.20
2023-03-27T06:52:12.172Z,0.13
2023-03-27T06:54:39.101Z,0.20
2023-03-27T06:57:06.452Z,0.30
2023-03-27T06:59:48.867Z,0.10
2023-03-27T07:02:20.555Z,0.10
2023-03-27T07:07:36.137Z,0.10
2023-03-27T07:10:03.531Z,0.20
2023-03-27T07:12:30.593Z,0.10
2023-03-27T07:14:57.807Z,0.10
2023-03-27T07:17:37.840Z,0.20
2023-03-27T07:20:13.104Z,0.20
2023-03-27T07:22:43.272Z,0.20
2023-03-27T07:25:21.359Z,0.20
2023-03-27T07:27:48.302Z,0.10
2023-03-27T07:30:15.208Z,0.10
2023-03-27T07:32:44.709Z,0.17
2023-03-27T07:35:12.029Z,0.10
2023-03-27T07:37:39.393Z,0.20
2023-03-27T07:40:36.948Z,0.40
2023-03-27T07:43:35.781Z,0.13
2023-03-27T07:46:06.110Z,0.00
2023-03-27T07:48:32.990Z,0.10
2023-03-27T07:51:10.678Z,0.20
2023-03-27T07:53:41.605Z,0.17
2023-03-27T07:56:21.087Z,0.10
2023-03-27T07:58:49.241Z,0.10
2023-03-27T08:01:20.448Z,0.20
2023-03-27T08:03:48.964Z,0.10
2023-03-27T08:06:18.116Z,0.40
2023-03-27T08:08:46.016Z,0.20
2023-03-27T08:11:23.129Z,0.20
2023-03-27T08:13:57.072Z,0.10
2023-03-27T08:16:27.768Z,0.03
2023-03-27T08:18:57.698Z,0.20
2023-03-27T08:21:26.244Z,0.13
2023-03-27T08:23:57.313Z,0.17
2023-03-27T08:26:27.902Z,0.10
2023-03-27T08:29:02.000Z,0.35
2023-03-27T08:31:31.307Z,0.20
2023-03-27T08:34:00.291Z,0.30
2023-03-27T08:36:34.426Z,0.10
2023-03-27T08:39:02.542Z,0.00
2023-03-27T08:41:42.526Z,0.20
2023-03-27T08:44:17.880Z,0.13
2023-03-27T08:47:11.318Z,0.10
2023-03-27T08:49:52.688Z,0.40
2023-03-27T08:52:31.932Z,0.10
2023-03-27T08:55:49.863Z,0.20
2023-03-27T08:58:22.427Z,0.10
2023-03-27T09:01:17.397Z,0.10
2023-03-27T09:03:56.791Z,0.10
2023-03-27T09:06:25.869Z,0.10
2023-03-27T09:09:18.810Z,0.10
2023-03-27T09:12:05.381Z,0.10
2023-03-27T09:14:40.868Z,0.10
2023-03-27T09:17:17.151Z,0.10
2023-03-27T09:20:17.642Z,0.20
2023-03-27T09:22:52.788Z,0.30
2023-03-27T09:25:38.082Z,0.10
2023-03-27T09:28:50.572Z,0.20
2023-03-27T09:31:23.062Z,0.20
2023-03-27T09:33:49.777Z,0.10
2023-03-27T09:36:17.332Z,0.10
2023-03-27T09:38:50.697Z,0.08
2023-03-27T09:41:23.822Z,0.10
2023-03-27T09:44:06.355Z,0.10
2023-03-27T09:49:14.043Z,0.10
2023-03-27T09:51:56.761Z,0.10
2023-03-27T09:54:54.976Z,0.10
2023-03-27T09:57:35.453Z,0.10
2023-03-27T10:00:21.498Z,0.20
2023-03-27T10:03:07.988Z,0.15
2023-03-27T10:05:38.919Z,0.10
2023-03-27T10:08:26.649Z,0.17
2023-03-27T10:11:33.179Z,0.10
2023-03-27T10:14:17.564Z,0.10
2023-03-27T10:16:46.285Z,0.10
2023-03-27T10:19:41.430Z,0.05
2023-03-27T10:22:21.625Z,0.10
2023-03-27T10:24:49.586Z,0.10
2023-03-27T10:27:34.525Z,0.40
2023-03-27T10:30:38.082Z,0.20
2023-03-27T10:33:34.158Z,0.10
2023-03-27T10:36:37.988Z,0.10
2023-03-27T10:39:13.843Z,0.10
2023-03-27T10:42:04.738Z,0.08
2023-03-27T10:44:37.566Z,0.13
2023-03-27T10:47:15.040Z,0.10
2023-03-27T10:49:48.423Z,0.10
2023-03-27T10:55:34.537Z,0.00
2023-03-27T10:58:06.517Z,0.10
2023-03-27T11:00:41.077Z,0.10
2023-03-27T11:03:16.448Z,0.10
2023-03-27T11:05:48.429Z,0.10
2023-03-27T11:08:56.405Z,0.10
2023-03-27T11:11:32.619Z,0.10
2023-03-27T11:14:05.398Z,0.20
2023-03-27T11:16:41.101Z,0.10
2023-03-27T11:19:36.090Z,0.10
2023-03-27T11:22:33.040Z,0.10
2023-03-27T11:25:35.382Z,0.10
2023-03-27T11:28:08.036Z,0.10
2023-03-27T11:30:44.241Z,0.10
2023-03-27T11:33:29.628Z,0.10
2023-03-27T11:36:30.032Z,0.00
2023-03-27T11:39:22.677Z,0.20
2023-03-27T11:41:54.245Z,0.20
2023-03-27T11:44:23.646Z,0.10
2023-03-27T11:47:18.765Z,0.10
2023-03-27T11:50:24.971Z,0.10
2023-03-27T11:53:51.439Z,0.13
2023-03-27T11:57:04.303Z,0.10
2023-03-27T11:59:51.236Z,0.10
2023-03-27T12:02:57.592Z,0.10
2023-03-27T12:06:05.423Z,0.50
2023-03-27T12:08:43.048Z,0.10
2023-03-27T12:11:14.784Z,0.10
2023-03-27T12:14:17.509Z,0.10
2023-03-27T12:17:12.624Z,0.10
2023-03-27T12:20:53.001Z,0.30
2023-03-27T12:23:41.494Z,0.10
2023-03-27T12:27:08.069Z,0.10
2023-03-27T12:30:14.752Z,0.30
2023-03-27T12:32:52.099Z,0.10
2023-03-27T12:35:26.998Z,0.10
2023-03-27T12:38:04.070Z,0.10
2023-03-27T12:40:48.054Z,0.00
2023-03-27T12:43:39.809Z,0.10
2023-03-27T12:46:23.057Z,0.10
2023-03-27T12:49:10.608Z,0.43
2023-03-27T12:51:51.330Z,0.08
2023-03-27T12:54:39.394Z,0.10
2023-03-27T12:59:59.153Z,0.10
2023-03-27T13:03:11.760Z,0.10
2023-03-27T13:06:01.554Z,0.10
2023-03-27T13:08:55.443Z,0.10
2023-03-27T13:11:37.282Z,0.17
2023-03-27T13:14:16.371Z,0.10
2023-03-27T13:16:49.357Z,0.10
2023-03-27T13:19:38.709Z,0.03
2023-03-27T13:22:43.040Z,0.10
2023-03-27T13:25:40.307Z,0.15
2023-03-27T13:28:34.458Z,0.17
2023-03-27T13:31:14.668Z,0.20
2023-03-27T13:34:26.981Z,0.28
2023-03-27T13:37:11.808Z,0.20
2023-03-27T13:39:56.179Z,0.20
2023-03-27T13:42:37.647Z,0.20
2023-03-27T13:45:17.674Z,0.20
2023-03-27T13:48:13.824Z,0.10
2023-03-27T13:51:11.227Z,0.22
2023-03-27T13:53:38.589Z,0.10
2023-03-27T13:56:29.896Z,0.10
2023-03-27T13:58:59.592Z,0.20
2023-03-27T14:01:45.306Z,0.20
2023-03-27T14:04:24.165Z,0.10
2023-03-27T14:07:09.543Z,0.10
2023-03-27T14:09:48.102Z,0.47
2023-03-27T14:12:38.110Z,0.20
2023-03-27T14:15:26.989Z,0.10
2023-03-27T14:18:29.037Z,0.30
2023-03-27T14:21:00.598Z,0.10
2023-03-27T14:23:32.481Z,0.20
2023-03-27T14:26:29.660Z,0.20
2023-03-27T14:29:01.826Z,0.20
2023-03-27T14:31:38.192Z,0.10
2023-03-27T14:34:12.169Z,0.20
2023-03-27T14:36:49.841Z,0.57
2023-03-27T14:39:28.420Z,0.10
2023-03-27T14:42:03.372Z,0.15
2023-03-27T14:44:33.997Z,0.20
2023-03-27T14:47:12.852Z,0.20
2023-03-27T14:52:25.671Z,0.73
2023-03-27T14:55:15.498Z,0.20
2023-03-27T14:57:44.582Z,0.20
2023-03-27T15:00:18.901Z,0.30
2023-03-27T15:02:48.607Z,0.20
2023-03-27T15:05:18.491Z,0.03
2023-03-27T15:13:10.037Z,0.20
2023-03-27T15:15:42.859Z,0.30
2023-03-27T15:18:49.337Z,0.20
2023-03-27T15:21:58.502Z,0.20
2023-03-27T15:24:30.645Z,0.20
2023-03-27T15:27:00.449Z,0.20
2023-03-27T15:29:48.027Z,0.47
2023-03-27T15:32:22.121Z,0.20
2023-03-27T15:34:56.856Z,0.20
2023-03-27T15:37:32.951Z,0.10
2023-03-27T15:40:01.676Z,0.20
2023-03-27T15:42:48.416Z,0.10
2023-03-27T15:45:16.904Z,0.20
2023-03-27T15:47:45.465Z,0.30
2023-03-27T15:50:22.656Z,0.22
2023-03-27T15:52:55.067Z,0.17
2023-03-27T15:55:40.682Z,0.30
2023-03-27T15:58:39.984Z,0.30
2023-03-27T16:01:18.298Z,0.20
2023-03-27T16:03:48.277Z,0.28
2023-03-27T16:06:26.704Z,0.20
2023-03-27T16:08:55.057Z,0.28
2023-03-27T16:11:40.459Z,0.35
2023-03-27T16:14:21.804Z,0.20
2023-03-27T16:16:53.766Z,0.20
2023-03-27T16:19:20.800Z,0.43
2023-03-27T16:21:55.785Z,0.35
2023-03-27T16:24:22.616Z,0.50
2023-03-27T16:26:50.371Z,0.32
2023-03-27T16:29:18.722Z,0.40
2023-03-27T16:31:45.331Z,0.20
2023-03-27T16:34:22.910Z,0.30
2023-03-27T16:36:50.371Z,0.38
2023-03-27T16:39:17.059Z,0.20
2023-03-27T16:41:43.803Z,0.32
2023-03-27T16:44:10.848Z,0.30
2023-03-27T16:46:37.871Z,0.20
2023-03-27T16:49:04.540Z,0.22
2023-03-27T16:51:31.628Z,0.50
2023-03-27T16:53:58.311Z,0.50
2023-03-27T16:56:25.042Z,0.30
2023-03-27T16:58:51.737Z,0.20
2023-03-27T17:01:18.836Z,0.30
2023-03-27T17:03:46.497Z,0.30
2023-03-27T17:06:15.159Z,0.52
2023-03-27T17:08:42.253Z,0.30
2023-03-27T17:11:11.686Z,0.47
2023-03-27T17:13:42.924Z,0.40
2023-03-27T17:16:10.749Z,0.30
2023-03-27T17:18:37.529Z,0.20
2023-03-27T17:21:04.510Z,0.22
2023-03-27T17:23:31.719Z,0.25
2023-03-27T17:26:03.275Z,0.40
2023-03-27T17:28:31.058Z,0.30
2023-03-27T17:31:04.430Z,0.30
2023-03-27T17:33:32.952Z,0.35
2023-03-27T17:35:59.814Z,0.40
2023-03-27T17:38:27.566Z,0.60
2023-03-27T17:40:54.354Z,0.52
2023-03-27T17:43:21.143Z,0.50
2023-03-27T17:45:49.040Z,0.50
2023-03-27T17:48:15.939Z,0.47
2023-03-27T17:53:12.332Z,0.63
2023-03-27T17:55:42.634Z,0.47
2023-03-27T17:58:10.195Z,0.60
2023-03-27T18:00:41.382Z,0.57
2023-03-27T18:03:09.014Z,0.60
2023-03-27T18:05:38.034Z,0.60
2023-03-27T18:08:06.114Z,0.40
2023-03-27T18:10:36.077Z,0.43
2023-03-27T18:13:03.392Z,0.60
2023-03-27T18:15:30.448Z,0.60
2023-03-27T18:17:57.974Z,0.60
2023-03-27T18:20:24.610Z,0.70
2023-03-27T18:22:51.221Z,0.50
2023-03-27T18:25:18.061Z,0.40
2023-03-27T18:27:45.113Z,0.50
2023-03-27T18:30:17.259Z,0.50
2023-03-27T18:32:45.809Z,0.50
2023-03-27T18:35:17.739Z,0.60
2023-03-27T18:37:45.529Z,0.70
2023-03-27T18:40:15.082Z,0.50
2023-03-27T18:42:45.358Z,0.40
2023-03-27T18:45:14.275Z,0.73
2023-03-27T18:47:42.927Z,0.47
2023-03-27T18:50:13.880Z,0.65
2023-03-27T18:52:41.573Z,0.50
2023-03-27T18:55:09.633Z,0.47
2023-03-27T18:57:36.792Z,0.80
2023-03-27T19:00:07.469Z,0.60
2023-03-27T19:02:36.244Z,0.70
2023-03-27T19:05:04.145Z,0.60
2023-03-27T19:07:31.267Z,0.80
2023-03-27T19:09:58.767Z,0.73
2023-03-27T19:12:37.016Z,0.50
2023-03-27T19:15:33.646Z,0.60
2023-03-27T19:18:01.182Z,0.70
2023-03-27T19:21:03.313Z,0.57
2023-03-27T19:23:48.813Z,0.70
2023-03-27T19:26:21.955Z,0.82
2023-03-27T19:28:48.641Z,0.60
2023-03-27T19:31:15.787Z,0.65
2023-03-27T19:33:42.892Z,0.68
2023-03-27T19:36:10.165Z,0.60
2023-03-27T19:38:38.446Z,0.75
2023-03-27T19:41:08.667Z,0.70
2023-03-27T19:43:35.435Z,0.73
2023-03-27T19:46:15.082Z,0.40
2023-03-27T19:48:50.076Z,0.60
2023-03-27T19:51:28.617Z,0.70
2023-03-27T19:53:55.571Z,0.60
2023-03-27T19:56:24.647Z,0.70
2023-03-27T19:58:52.303Z,0.68
2023-03-27T20:01:19.889Z,0.85
2023-03-27T20:03:47.007Z,0.88
2023-03-27T20:06:18.996Z,0.60
2023-03-27T20:08:46.054Z,0.50
2023-03-27T20:11:15.059Z,0.50
2023-03-27T20:13:55.463Z,0.98
2023-03-27T20:16:26.354Z,0.40
2023-03-27T20:19:04.183Z,0.57
2023-03-27T20:21:40.351Z,0.80
2023-03-27T20:24:12.698Z,0.70
2023-03-27T20:26:48.011Z,0.50
2023-03-27T20:29:21.075Z,0.60
2023-03-27T20:31:48.591Z,0.77
2023-03-27T20:34:19.756Z,0.60
2023-03-27T20:36:47.529Z,0.65
2023-03-27T20:39:34.727Z,0.50
2023-03-27T20:42:01.410Z,0.40
2023-03-27T20:44:36.512Z,0.45
2023-03-27T20:47:10.688Z,0.57
2023-03-27T20:49:41.535Z,0.82
2023-03-27T20:52:13.858Z,0.43
2023-03-27T20:54:40.651Z,0.57
2023-03-27T20:57:11.154Z,0.50
2023-03-27T20:59:38.166Z,0.50
2023-03-27T21:02:05.164Z,0.40
2023-03-27T21:04:32.770Z,0.40
2023-03-27T21:06:59.816Z,0.40
2023-03-27T21:09:27.568Z,0.60
2023-03-27T21:11:55.626Z,0.45
2023-03-27T21:14:23.230Z,0.77
2023-03-27T21:16:50.362Z,0.50
2023-03-27T21:19:20.211Z,0.60
2023-03-27T21:21:47.053Z,0.60
2023-03-27T21:24:14.085Z,0.50
2023-03-27T21:26:41.483Z,0.40
2023-03-27T21:29:10.809Z,0.50
2023-03-27T21:31:41.752Z,0.40
2023-03-27T21:34:08.640Z,0.70
2023-03-27T21:36:35.588Z,0.70
2023-03-27T21:39:02.413Z,0.40
2023-03-27T21:41:29.300Z,0.77
2023-03-27T21:43:55.991Z,0.43
2023-03-27T21:46:23.020Z,0.32
2023-03-27T21:48:50.820Z,0.40
2023-03-27T21:51:17.901Z,0.65
2023-03-27T21:53:45.971Z,0.50
2023-03-27T21:56:12.870Z,0.35
2023-03-27T21:58:39.593Z,0.68
2023-03-27T22:01:06.871Z,0.50
2023-03-27T22:03:33.597Z,0.50
2023-03-27T22:06:12.161Z,0.60
2023-03-27T22:08:42.147Z,0.52
2023-03-27T22:11:10.433Z,0.60
2023-03-27T22:13:38.395Z,0.60
2023-03-27T22:16:10.905Z,0.60
2023-03-27T22:18:37.756Z,0.50
2023-03-27T22:21:22.073Z,0.50
2023-03-27T22:23:50.814Z,0.60
2023-03-27T22:26:25.920Z,0.52
2023-03-27T22:28:52.870Z,0.73
2023-03-27T22:31:21.224Z,0.60
2023-03-27T22:33:48.717Z,0.60
2023-03-27T22:36:15.696Z,0.60
2023-03-27T22:38:42.923Z,0.45
2023-03-27T22:41:11.306Z,0.60
2023-03-27T22:43:38.205Z,0.80
2023-03-27T22:46:09.902Z,0.60
2023-03-27T22:48:36.934Z,0.93
2023-03-27T22:51:03.971Z,0.50
2023-03-27T22:53:34.137Z,0.60
2023-03-27T22:56:01.922Z,0.60
2023-03-27T22:58:31.324Z,0.43
2023-03-27T23:00:58.575Z,0.60
2023-03-27T23:03:26.719Z,0.40
2023-03-27T23:05:54.644Z,0.50
2023-03-27T23:08:32.858Z,0.65
2023-03-27T23:11:01.115Z,0.50
2023-03-27T23:13:29.567Z,0.70
2023-03-27T23:15:56.303Z,0.60
2023-03-27T23:18:25.211Z,0.50
2023-03-27T23:20:56.174Z,0.70
2023-03-27T23:23:23.239Z,0.50
2023-03-27T23:25:50.241Z,0.75
2023-03-27T23:28:17.010Z,0.70
2023-03-27T23:30:51.442Z,0.50
2023-03-27T23:33:18.272Z,0.70
2023-03-27T23:35:44.870Z,0.60
2023-03-27T23:38:11.537Z,0.68
2023-03-27T23:40:38.876Z,0.50
2023-03-27T23:43:05.462Z,0.82
2023-03-27T23:45:32.095Z,0.50
2023-03-27T23:47:58.851Z,0.40
2023-03-27T23:50:25.787Z,0.90
2023-03-27T23:52:52.464Z,0.40
2023-03-27T23:55:19.094Z,0.50
2023-03-27T23:57:45.827Z,0.50
